Time;durP1;ratioP1;P1;durP2;ratioP2;P2;SDS_P1;SDS_P2;PMS_P1;PMS_P2;Temp;Humidity;BMP_temperature;BMP_pressure;BME280_temperature;BME280_humidity;BME280_pressure;Samples;Min_cycle;Max_cycle;Signal;HPM_P1;HPM_P2
2022/10/17 00:01:14;;;;;;;3.35;1.73;;;11.30;99.90;;;;;;5054846;28;20041;-68
2022/10/17 00:03:40;;;;;;;4.03;2.08;;;11.30;99.90;;;;;;5054690;28;20037;-67
2022/10/17 00:06:07;;;;;;;3.72;2.28;;;11.40;99.90;;;;;;5054799;28;20040;-68
2022/10/17 00:08:33;;;;;;;3.92;1.67;;;11.50;99.90;;;;;;5054722;28;20045;-68
2022/10/17 00:11:03;;;;;;;4.38;1.50;;;11.40;99.90;;;;;;5054675;28;20244;-67
2022/10/17 00:13:29;;;;;;;9.07;1.95;;;11.40;99.90;;;;;;5054642;28;20560;-68
2022/10/17 00:15:55;;;;;;;4.15;1.55;;;11.40;99.90;;;;;;5054418;28;20053;-68
2022/10/17 00:18:21;;;;;;;5.50;1.70;;;11.40;99.90;;;;;;5036261;28;20053;-68
2022/10/17 00:20:47;;;;;;;2.28;1.17;;;11.40;99.90;;;;;;5054511;28;20052;-67
2022/10/17 00:23:12;;;;;;;3.40;1.52;;;11.40;99.90;;;;;;5054489;28;20036;-68
2022/10/17 00:25:39;;;;;;;2.85;1.48;;;11.40;99.90;;;;;;5036219;28;20403;-67
2022/10/17 00:28:07;;;;;;;7.03;1.85;;;11.40;99.90;;;;;;5054344;28;20036;-68
2022/10/17 00:30:33;;;;;;;2.83;1.60;;;11.50;99.90;;;;;;5054062;28;20039;-67
2022/10/17 00:32:58;;;;;;;6.00;1.30;;;11.50;99.90;;;;;;5036339;28;20049;-68
2022/10/17 00:35:24;;;;;;;3.42;1.88;;;11.50;99.90;;;;;;5054223;28;20040;-68
2022/10/17 00:37:50;;;;;;;2.90;1.42;;;12.30;99.90;;;;;;5035903;28;20049;-68
2022/10/17 00:40:15;;;;;;;3.03;1.60;;;11.60;99.90;;;;;;5054168;28;20447;-68
2022/10/17 00:42:41;;;;;;;1.55;1.23;;;11.60;99.90;;;;;;5036130;28;20476;-68
2022/10/17 00:45:21;;;;;;;3.50;1.70;;;11.70;99.90;;;;;;5036201;28;20060;-68
2022/10/17 00:47:59;;;;;;;2.75;1.30;;;11.70;99.90;;;;;;5054079;28;20369;-68
2022/10/17 00:50:25;;;;;;;1.95;1.30;;;11.70;99.90;;;;;;5053717;28;20051;-68
2022/10/17 00:52:52;;;;;;;1.70;1.30;;;11.70;99.90;;;;;;5053920;28;20116;-68
2022/10/17 00:55:24;;;;;;;3.47;1.67;;;11.80;99.90;;;;;;5035514;28;20045;-67
2022/10/17 00:57:51;;;;;;;1.60;1.40;;;11.90;99.90;;;;;;5034880;28;20049;-67
2022/10/17 01:00:17;;;;;;;2.92;1.50;;;11.90;99.90;;;;;;5035547;28;20051;-68
2022/10/17 01:02:44;;;;;;;4.20;2.33;;;11.90;99.90;;;;;;5053621;28;20041;-67
2022/10/17 01:05:10;;;;;;;5.18;1.58;;;11.90;99.90;;;;;;5053582;28;20045;-67
2022/10/17 01:07:38;;;;;;;2.95;1.83;;;12.00;99.90;;;;;;5035389;28;20048;-67
2022/10/17 01:10:05;;;;;;;4.88;1.45;;;12.10;99.90;;;;;;5053267;28;20045;-67
2022/10/17 01:12:59;;;;;;;2.15;1.70;;;12.10;99.90;;;;;;5053560;28;20064;-68
2022/10/17 01:15:32;;;;;;;1.95;1.67;;;12.20;99.90;;;;;;5045185;28;20074;-67
2022/10/17 01:18:10;;;;;;;5.20;1.63;;;12.20;99.90;;;;;;5053058;28;20056;-67
2022/10/17 01:20:53;;;;;;;2.92;1.70;;;12.20;99.90;;;;;;5053328;28;20427;-67
2022/10/17 01:23:58;;;;;;;5.75;1.75;;;12.30;99.90;;;;;;5053278;28;20400;-68
2022/10/17 01:26:52;;;;;;;2.75;1.70;;;12.30;99.90;;;;;;5052886;28;20037;-67
2022/10/17 01:29:43;;;;;;;2.63;2.42;;;12.30;99.90;;;;;;5053120;28;20036;-68
2022/10/17 01:32:17;;;;;;;3.85;1.90;;;12.40;99.90;;;;;;5052721;28;20095;-67
2022/10/17 01:34:54;;;;;;;8.02;1.92;;;12.40;99.90;;;;;;5053070;28;20044;-68
2022/10/17 01:37:38;;;;;;;2.47;1.50;;;12.40;99.90;;;;;;5052831;28;20473;-68
2022/10/17 01:40:09;;;;;;;6.60;1.83;;;12.40;99.90;;;;;;5052936;28;20472;-67
2022/10/17 01:42:38;;;;;;;3.78;1.92;;;12.50;99.90;;;;;;5052742;28;20041;-67
2022/10/17 01:45:24;;;;;;;2.30;1.77;;;12.50;99.90;;;;;;5034930;28;20451;-68
2022/10/17 01:47:52;;;;;;;3.20;2.13;;;12.50;99.90;;;;;;5034487;28;20533;-67
2022/10/17 01:50:23;;;;;;;2.13;1.65;;;12.50;99.90;;;;;;5052746;28;20146;-68
2022/10/17 01:53:29;;;;;;;2.33;1.77;;;12.50;99.90;;;;;;5052525;28;20055;-67
2022/10/17 01:55:58;;;;;;;2.90;1.95;;;12.40;99.90;;;;;;5052706;28;20108;-68
2022/10/17 01:58:35;;;;;;;2.75;1.98;;;12.50;99.90;;;;;;5052587;28;20523;-68
2022/10/17 02:01:04;;;;;;;2.35;1.45;;;12.40;99.90;;;;;;5036498;28;20040;-63
2022/10/17 02:03:33;;;;;;;4.93;1.98;;;12.40;99.90;;;;;;5052565;28;20041;-63
2022/10/17 02:05:59;;;;;;;2.53;1.80;;;12.30;99.90;;;;;;5052494;28;20096;-63
2022/10/17 02:08:39;;;;;;;5.60;2.47;;;12.30;99.90;;;;;;5051985;28;20438;-63
2022/10/17 02:11:13;;;;;;;2.50;1.77;;;12.30;99.90;;;;;;5052572;28;20124;-63
2022/10/17 02:14:04;;;;;;;3.22;1.85;;;12.30;99.90;;;;;;5052073;28;20052;-63
2022/10/17 02:17:03;;;;;;;6.40;2.17;;;12.20;99.90;;;;;;5051951;28;20056;-64
2022/10/17 02:20:03;;;;;;;3.10;2.00;;;12.20;99.90;;;;;;5052414;28;20076;-63
2022/10/17 02:23:06;;;;;;;3.78;1.77;;;12.20;99.90;;;;;;5019931;28;20049;-63
2022/10/17 02:25:44;;;;;;;6.20;2.22;;;12.20;99.90;;;;;;5034301;28;20138;-63
2022/10/17 02:28:20;;;;;;;2.90;2.10;;;12.20;99.90;;;;;;5052195;28;20063;-63
2022/10/17 02:30:49;;;;;;;2.00;1.77;;;12.20;99.90;;;;;;5051851;28;20041;-63
2022/10/17 02:33:32;;;;;;;2.45;1.63;;;12.20;99.90;;;;;;5052184;28;20069;-63
2022/10/17 02:36:04;;;;;;;2.80;2.13;;;12.20;99.90;;;;;;5052155;28;20048;-64
2022/10/17 02:38:33;;;;;;;3.72;2.47;;;12.40;99.90;;;;;;5051786;28;20496;-63
2022/10/17 02:41:00;;;;;;;3.60;2.40;;;12.20;99.90;;;;;;5051994;28;20146;-63
2022/10/17 02:43:26;;;;;;;3.00;2.10;;;12.10;99.90;;;;;;5052090;28;20392;-63
2022/10/17 02:45:53;;;;;;;3.28;2.03;;;12.20;99.90;;;;;;5034038;28;20041;-65
2022/10/17 02:48:23;;;;;;;2.60;2.05;;;12.20;99.90;;;;;;5051806;28;20041;-63
2022/10/17 02:50:58;;;;;;;3.47;2.20;;;12.20;99.90;;;;;;5052037;28;20049;-63
2022/10/17 02:53:52;;;;;;;2.90;2.10;;;12.20;99.90;;;;;;5051654;28;20052;-63
2022/10/17 02:56:20;;;;;;;3.95;2.83;;;12.20;99.90;;;;;;5033815;28;20048;-65
2022/10/17 02:58:53;;;;;;;4.57;2.35;;;12.20;99.90;;;;;;5034017;28;20096;-63
2022/10/17 03:01:19;;;;;;;5.30;2.25;;;12.20;99.90;;;;;;5051939;28;20055;-64
2022/10/17 03:03:45;;;;;;;4.90;2.53;;;12.20;99.90;;;;;;5051534;28;20033;-63
2022/10/17 03:06:11;;;;;;;4.25;2.88;;;12.20;99.90;;;;;;5051482;28;20041;-63
2022/10/17 03:08:36;;;;;;;3.95;2.35;;;12.50;99.90;;;;;;5051816;28;20041;-63
2022/10/17 03:11:02;;;;;;;3.40;2.55;;;12.20;99.90;;;;;;5051844;28;20049;-63
2022/10/17 03:13:28;;;;;;;7.82;2.60;;;12.20;99.90;;;;;;5051643;28;20144;-63
2022/10/17 03:15:55;;;;;;;4.68;3.05;;;12.20;99.90;;;;;;5051456;28;20052;-63
2022/10/17 03:18:21;;;;;;;3.10;2.45;;;12.20;99.90;;;;;;5051990;28;20041;-63
2022/10/17 03:20:46;;;;;;;2.70;2.30;;;12.20;99.90;;;;;;5036649;28;20127;-63
2022/10/17 03:23:12;;;;;;;4.63;2.63;;;12.20;99.90;;;;;;5055555;28;20037;-63
2022/10/17 03:25:39;;;;;;;3.47;2.67;;;12.30;99.90;;;;;;5037317;28;20045;-63
2022/10/17 03:28:05;;;;;;;4.05;2.67;;;12.30;99.90;;;;;;5055527;28;20503;-63
2022/10/17 03:30:31;;;;;;;4.22;2.47;;;12.30;99.90;;;;;;5055515;28;20037;-63
2022/10/17 03:32:58;;;;;;;8.20;2.80;;;12.30;99.90;;;;;;5037225;28;20076;-63
2022/10/17 03:35:24;;;;;;;4.30;3.00;;;12.30;99.90;;;;;;5055146;28;20044;-67
2022/10/17 03:37:50;;;;;;;3.53;2.65;;;12.30;99.90;;;;;;5037112;28;20530;-62
2022/10/17 03:40:15;;;;;;;5.75;3.05;;;12.30;99.90;;;;;;5055237;28;20072;-63
2022/10/17 03:42:41;;;;;;;4.03;2.80;;;12.30;99.90;;;;;;5055231;28;20408;-63
2022/10/17 03:45:07;;;;;;;3.65;2.40;;;12.40;99.90;;;;;;5055198;28;20040;-63
2022/10/17 03:47:33;;;;;;;4.60;3.05;;;12.40;99.90;;;;;;5055165;28;20043;-63
2022/10/17 03:49:58;;;;;;;4.57;3.10;;;12.40;99.90;;;;;;5055157;28;20480;-63
2022/10/17 03:52:24;;;;;;;5.32;3.00;;;12.40;99.90;;;;;;5037238;28;20036;-62
2022/10/17 03:54:50;;;;;;;3.10;2.60;;;12.40;99.90;;;;;;5037125;28;20068;-63
2022/10/17 03:57:17;;;;;;;4.18;2.85;;;12.40;99.90;;;;;;5054836;28;20037;-63
2022/10/17 03:59:42;;;;;;;5.53;2.85;;;12.40;99.90;;;;;;5054895;28;20116;-62
2022/10/17 04:02:08;;;;;;;6.47;3.10;;;12.40;99.90;;;;;;5055214;28;20116;-63
2022/10/17 04:04:34;;;;;;;4.47;3.38;;;12.40;99.90;;;;;;5054554;28;20103;-63
2022/10/17 04:06:59;;;;;;;5.07;2.83;;;12.40;99.90;;;;;;5054806;28;20045;-63
2022/10/17 04:09:25;;;;;;;7.95;3.17;;;12.50;99.90;;;;;;5036864;28;20084;-63
2022/10/17 04:11:51;;;;;;;6.18;4.00;;;12.50;99.90;;;;;;5054908;28;20052;-63
2022/10/17 04:14:16;;;;;;;8.60;3.05;;;12.50;99.90;;;;;;5054287;28;20463;-63
2022/10/17 04:16:42;;;;;;;5.75;3.25;;;12.50;99.90;;;;;;5019953;28;20049;-63
2022/10/17 04:19:11;;;;;;;9.07;3.45;;;12.50;99.90;;;;;;5053253;28;20119;-63
2022/10/17 04:21:37;;;;;;;4.90;3.15;;;12.50;99.90;;;;;;5054111;28;20119;-63
2022/10/17 04:24:03;;;;;;;4.35;3.00;;;12.60;99.90;;;;;;5036626;28;20125;-63
2022/10/17 04:26:29;;;;;;;7.05;3.55;;;12.60;99.90;;;;;;5054413;28;20041;-64
2022/10/17 04:28:55;;;;;;;6.05;4.40;;;12.80;99.90;;;;;;5036262;28;20069;-63
2022/10/17 04:31:21;;;;;;;4.55;3.38;;;12.60;99.90;;;;;;5054084;28;20530;-63
2022/10/17 04:33:47;;;;;;;4.55;3.45;;;12.90;99.90;;;;;;5054221;28;20037;-63
2022/10/17 04:36:16;;;;;;;5.50;3.88;;;12.60;99.90;;;;;;5036357;28;20049;-64
2022/10/17 04:38:42;;;;;;;4.30;3.13;;;12.70;99.90;;;;;;5035913;28;20045;-63
2022/10/17 04:41:11;;;;;;;5.75;3.42;;;12.70;99.90;;;;;;5054176;28;20041;-63
2022/10/17 04:43:38;;;;;;;5.20;3.53;;;12.70;99.90;;;;;;5036228;28;20437;-63
2022/10/17 04:46:07;;;;;;;5.22;3.65;;;12.60;99.90;;;;;;5054114;28;20396;-63
2022/10/17 04:48:33;;;;;;;6.00;3.85;;;12.70;99.90;;;;;;5054008;28;20175;-63
2022/10/17 04:51:01;;;;;;;4.93;3.38;;;12.80;99.90;;;;;;5053990;28;20055;-64
2022/10/17 04:53:29;;;;;;;5.93;3.83;;;12.80;99.90;;;;;;5053896;28;20119;-66
2022/10/17 04:55:55;;;;;;;4.35;3.45;;;12.80;99.90;;;;;;5035935;28;20404;-63
2022/10/17 04:58:21;;;;;;;6.95;4.00;;;12.80;99.90;;;;;;5035602;28;20151;-63
2022/10/17 05:00:47;;;;;;;5.90;4.07;;;12.80;99.90;;;;;;5053462;28;20110;-63
2022/10/17 05:03:13;;;;;;;4.82;3.72;;;12.80;99.90;;;;;;5053771;28;20121;-63
2022/10/17 05:05:40;;;;;;;4.65;3.58;;;12.80;99.90;;;;;;5053386;28;20100;-64
2022/10/17 05:08:07;;;;;;;5.00;3.42;;;12.80;99.90;;;;;;5035705;28;20476;-63
2022/10/17 05:10:44;;;;;;;6.13;3.75;;;13.00;99.90;;;;;;5053571;28;20049;-63
2022/10/17 05:13:10;;;;;;;4.80;3.67;;;12.80;99.90;;;;;;5053526;28;20049;-63
2022/10/17 05:15:37;;;;;;;7.57;3.65;;;12.80;99.90;;;;;;5053291;28;20128;-64
2022/10/17 05:18:04;;;;;;;6.72;3.50;;;12.80;99.90;;;;;;5053158;28;20049;-63
2022/10/17 05:20:29;;;;;;;5.35;4.20;;;12.80;99.90;;;;;;5052982;28;20124;-63
2022/10/17 05:22:58;;;;;;;5.65;3.70;;;12.80;99.90;;;;;;5035232;28;20148;-63
2022/10/17 05:25:24;;;;;;;6.25;3.92;;;12.80;99.90;;;;;;5052926;28;20049;-63
2022/10/17 05:27:49;;;;;;;7.05;3.83;;;12.80;99.90;;;;;;5034984;28;20051;-63
2022/10/17 05:30:15;;;;;;;4.68;3.55;;;12.80;99.90;;;;;;5053108;28;20049;-63
2022/10/17 05:32:41;;;;;;;6.05;4.47;;;12.90;99.90;;;;;;5053078;28;20041;-63
2022/10/17 05:35:07;;;;;;;6.07;4.20;;;12.90;99.90;;;;;;5053000;28;20041;-63
2022/10/17 05:37:32;;;;;;;6.03;4.65;;;12.90;99.90;;;;;;5053042;28;20393;-63
2022/10/17 05:39:58;;;;;;;7.55;4.05;;;12.90;99.90;;;;;;5052902;28;20036;-63
2022/10/17 05:42:24;;;;;;;7.15;4.00;;;13.00;99.90;;;;;;5052241;28;20472;-64
2022/10/17 05:44:50;;;;;;;6.00;4.15;;;13.10;99.90;;;;;;5052820;28;20480;-64
2022/10/17 05:47:15;;;;;;;7.60;4.55;;;13.20;99.90;;;;;;5052790;28;20036;-63
2022/10/17 05:49:41;;;;;;;7.90;4.97;;;13.20;99.90;;;;;;5052739;28;20052;-63
2022/10/17 05:52:07;;;;;;;7.72;4.43;;;13.30;99.90;;;;;;5034590;28;20368;-63
2022/10/17 05:54:33;;;;;;;7.18;4.32;;;13.40;99.90;;;;;;5052787;28;20040;-63
2022/10/17 05:56:59;;;;;;;7.28;3.85;;;13.40;99.90;;;;;;5052496;28;20048;-64
2022/10/17 05:59:26;;;;;;;7.47;4.05;;;13.40;99.90;;;;;;5034547;28;20037;-63
2022/10/17 06:01:52;;;;;;;7.75;4.55;;;13.40;99.90;;;;;;5052574;28;20112;-63
2022/10/17 06:04:18;;;;;;;5.30;3.92;;;13.50;99.90;;;;;;5052560;28;20036;-63
2022/10/17 06:06:43;;;;;;;9.57;4.90;;;13.50;99.90;;;;;;5052648;28;20037;-63
2022/10/17 06:09:09;;;;;;;6.38;4.22;;;13.50;99.90;;;;;;5034410;28;20102;-64
2022/10/17 06:11:36;;;;;;;6.03;4.32;;;13.50;99.90;;;;;;5034316;28;20500;-64
2022/10/17 06:14:02;;;;;;;8.55;4.45;;;13.60;99.90;;;;;;5034519;28;20454;-63
2022/10/17 06:16:28;;;;;;;6.68;4.20;;;13.70;99.90;;;;;;5052104;28;20049;-63
2022/10/17 06:18:54;;;;;;;7.13;4.50;;;13.70;99.90;;;;;;5052373;28;20060;-63
2022/10/17 06:21:25;;;;;;;6.60;4.72;;;13.80;99.90;;;;;;5034590;28;20041;-63
2022/10/17 06:23:52;;;;;;;7.00;5.07;;;13.80;99.90;;;;;;5051991;28;20051;-63
2022/10/17 06:26:18;;;;;;;6.15;3.67;;;13.80;99.90;;;;;;5051997;28;20045;-64
2022/10/17 06:28:44;;;;;;;7.40;4.40;;;13.90;99.90;;;;;;5052045;28;20127;-63
2022/10/17 06:31:13;;;;;;;6.95;4.93;;;13.90;99.90;;;;;;5052056;28;20129;-63
2022/10/17 06:33:39;;;;;;;7.15;4.28;;;13.90;99.90;;;;;;5052133;28;20101;-63
2022/10/17 06:36:06;;;;;;;8.98;4.18;;;14.00;99.90;;;;;;5052177;28;20498;-65
2022/10/17 06:38:33;;;;;;;5.75;4.03;;;14.00;99.90;;;;;;5051895;28;20120;-62
2022/10/17 06:41:12;;;;;;;7.97;4.35;;;14.10;99.90;;;;;;5034121;28;20052;-62
2022/10/17 06:43:39;;;;;;;5.60;3.83;;;14.10;99.90;;;;;;5051610;28;20037;-63
2022/10/17 06:46:05;;;;;;;7.97;4.85;;;14.20;99.90;;;;;;5052036;28;20041;-63
2022/10/17 06:48:32;;;;;;;6.35;3.70;;;14.20;99.90;;;;;;5051645;28;20063;-63
2022/10/17 06:51:03;;;;;;;7.75;4.30;;;14.30;99.90;;;;;;5051816;28;20190;-64
2022/10/17 06:53:30;;;;;;;7.03;4.40;;;14.30;99.90;;;;;;5051820;28;20045;-63
2022/10/17 06:56:00;;;;;;;9.98;4.32;;;14.40;99.90;;;;;;5055167;28;20052;-64
2022/10/17 06:58:27;;;;;;;6.60;3.90;;;14.40;99.90;;;;;;5055663;28;20041;-64
2022/10/17 07:01:00;;;;;;;6.38;3.78;;;14.50;99.90;;;;;;5055498;28;20044;-63
2022/10/17 07:03:27;;;;;;;7.40;4.45;;;14.50;99.90;;;;;;5055607;28;20048;-63
2022/10/17 07:05:54;;;;;;;6.45;3.92;;;14.60;99.90;;;;;;5055745;28;20485;-63
2022/10/17 07:08:20;;;;;;;6.93;3.70;;;14.70;99.90;;;;;;5055440;28;20060;-63
2022/10/17 07:10:46;;;;;;;7.20;4.22;;;14.70;99.90;;;;;;5055730;28;20095;-63
2022/10/17 07:13:12;;;;;;;8.90;3.92;;;14.70;99.90;;;;;;5055683;28;20493;-63
2022/10/17 07:15:38;;;;;;;7.30;4.45;;;14.80;99.90;;;;;;5055232;28;20046;-64
2022/10/17 07:18:04;;;;;;;7.85;3.85;;;14.90;99.90;;;;;;5037335;28;20045;-65
2022/10/17 07:20:30;;;;;;;6.57;4.03;;;14.90;99.90;;;;;;5053911;28;20049;-64
2022/10/17 07:22:56;;;;;;;6.28;4.13;;;15.00;99.90;;;;;;5055174;28;20389;-64
2022/10/17 07:25:22;;;;;;;7.07;3.42;;;15.10;99.90;;;;;;5055134;28;20033;-60
2022/10/17 07:27:49;;;;;;;6.07;3.63;;;15.10;99.90;;;;;;5055334;28;20403;-65
2022/10/17 07:30:15;;;;;;;7.20;3.65;;;15.20;99.90;;;;;;5037322;28;20040;-64
2022/10/17 07:32:42;;;;;;;6.75;3.60;;;15.30;99.90;;;;;;5054965;28;20037;-64
2022/10/17 07:35:08;;;;;;;5.63;3.55;;;15.40;99.90;;;;;;5055041;28;20044;-67
2022/10/17 07:37:34;;;;;;;5.45;3.80;;;15.40;99.90;;;;;;5055330;28;20112;-64
2022/10/17 07:40:00;;;;;;;5.55;3.65;;;15.50;99.90;;;;;;5055256;28;20484;-64
2022/10/17 07:42:27;;;;;;;6.15;4.18;;;15.50;99.90;;;;;;5055205;28;20079;-64
2022/10/17 07:44:53;;;;;;;6.32;3.17;;;15.60;99.90;;;;;;5055097;28;20472;-64
2022/10/17 07:47:19;;;;;;;11.27;3.85;;;15.70;99.90;;;;;;5037113;28;20141;-64
2022/10/17 07:49:44;;;;;;;7.07;4.05;;;15.80;99.90;;;;;;5055123;28;20087;-64
2022/10/17 07:52:14;;;;;;;4.88;3.35;;;15.80;99.90;;;;;;5054828;28;20454;-64
2022/10/17 07:54:40;;;;;;;6.03;3.63;;;15.90;99.90;;;;;;5054693;28;20047;-63
2022/10/17 07:57:06;;;;;;;6.07;4.00;;;16.00;99.90;;;;;;5054889;28;20037;-64
2022/10/17 07:59:33;;;;;;;11.90;3.78;;;16.00;99.90;;;;;;5054938;28;20366;-63
2022/10/17 08:01:59;;;;;;;6.50;3.70;;;16.00;99.90;;;;;;5036697;28;20072;-65
2022/10/17 08:04:25;;;;;;;5.40;3.10;;;16.00;99.90;;;;;;5054841;28;20040;-64
2022/10/17 08:06:51;;;;;;;9.00;3.72;;;16.00;99.90;;;;;;5054090;28;20045;-62
2022/10/17 08:09:16;;;;;;;4.90;3.30;;;16.00;99.90;;;;;;5054655;28;20439;-64
2022/10/17 08:11:43;;;;;;;5.53;2.97;;;;;;;;;;5054673;28;20437;-63
2022/10/17 08:14:10;;;;;;;6.15;3.85;;;16.20;99.90;;;;;;5036508;28;20055;-63
2022/10/17 08:16:36;;;;;;;4.32;3.10;;;16.40;99.90;;;;;;5054225;28;20111;-64
2022/10/17 08:19:02;;;;;;;5.22;3.13;;;16.40;99.90;;;;;;5054195;28;20081;-64
2022/10/17 08:21:28;;;;;;;8.50;3.40;;;16.50;99.90;;;;;;5054498;28;20063;-64
2022/10/17 08:23:54;;;;;;;5.88;3.50;;;16.50;99.90;;;;;;5054171;28;20041;-64
2022/10/17 08:26:20;;;;;;;6.63;3.17;;;16.60;99.90;;;;;;5054419;28;20037;-64
2022/10/17 08:28:46;;;;;;;6.30;3.53;;;16.60;99.90;;;;;;5036089;28;20047;-64
2022/10/17 08:31:17;;;;;;;8.57;3.45;;;16.70;99.90;;;;;;5036486;28;20045;-62
2022/10/17 08:33:44;;;;;;;5.70;3.10;;;16.70;99.90;;;;;;5054246;28;20044;-71
2022/10/17 08:36:12;;;;;;;6.00;3.45;;;16.70;99.90;;;;;;5054018;28;20569;-70
2022/10/17 08:38:38;;;;;;;5.95;2.90;;;16.80;99.90;;;;;;5054117;28;20076;-71
2022/10/17 08:41:12;;;;;;;9.88;2.45;;;16.70;99.90;;;;;;5036405;28;20044;-70
2022/10/17 08:43:44;;;;;;;5.18;2.67;;;16.70;99.90;;;;;;5053833;28;20048;-70
2022/10/17 08:46:10;;;;;;;5.95;3.42;;;16.70;99.90;;;;;;5035944;28;20053;-70
2022/10/17 08:48:41;;;;;;;5.47;2.95;;;16.70;99.90;;;;;;5036120;28;20107;-70
2022/10/17 08:51:23;;;;;;;4.50;2.78;;;16.70;99.90;;;;;;5036076;28;20048;-69
2022/10/17 08:53:53;;;;;;;3.13;2.50;;;16.60;99.90;;;;;;5019160;28;20045;-70
2022/10/17 08:56:29;;;;;;;5.28;3.72;;;16.70;99.90;;;;;;5053900;28;20044;-70
2022/10/17 08:58:54;;;;;;;11.82;3.05;;;16.70;99.90;;;;;;5035650;28;20045;-70
2022/10/17 09:01:41;;;;;;;4.70;3.00;;;16.70;99.90;;;;;;5053466;28;20110;-69
2022/10/17 09:04:15;;;;;;;5.72;2.88;;;16.70;99.90;;;;;;5053685;28;20048;-69
2022/10/17 09:07:18;;;;;;;6.38;3.17;;;16.70;99.90;;;;;;5053673;28;20480;-71
2022/10/17 09:10:06;;;;;;;4.82;2.83;;;16.70;99.90;;;;;;5049043;28;20492;-70
2022/10/17 09:12:56;;;;;;;4.50;2.65;;;16.80;99.90;;;;;;5035386;28;20044;-71
2022/10/17 09:15:43;;;;;;;5.90;3.22;;;16.80;99.90;;;;;;5035429;28;20041;-70
2022/10/17 09:18:17;;;;;;;6.82;3.10;;;16.80;99.90;;;;;;5052574;28;20049;-70
2022/10/17 09:20:53;;;;;;;4.70;3.08;;;16.80;99.90;;;;;;5053160;28;20083;-71
2022/10/17 09:23:24;;;;;;;5.15;2.58;;;16.80;99.90;;;;;;5035199;28;20052;-70
2022/10/17 09:25:52;;;;;;;;;;;16.80;99.90;;;;;;5053716;28;20511;-70
2022/10/17 09:28:17;;;;;;;4.65;3.17;;;16.80;99.90;;;;;;5053166;28;19921;-69
2022/10/17 09:30:48;;;;;;;6.03;3.28;;;16.80;99.90;;;;;;5035062;28;20470;-69
2022/10/17 09:33:18;;;;;;;4.40;2.90;;;16.80;99.90;;;;;;5052802;28;20040;-70
2022/10/17 09:35:44;;;;;;;4.13;2.15;;;16.80;99.90;;;;;;5052806;28;20033;-71
2022/10/17 09:38:20;;;;;;;5.20;3.00;;;16.80;99.90;;;;;;5052625;28;20045;-70
2022/10/17 09:40:57;;;;;;;6.22;2.88;;;16.90;99.90;;;;;;5035038;28;20041;-70
2022/10/17 09:43:24;;;;;;;4.32;2.65;;;16.90;99.90;;;;;;5052968;28;20048;-71
2022/10/17 09:46:07;;;;;;;4.22;3.00;;;16.90;99.90;;;;;;5052853;28;20049;-70
2022/10/17 09:48:52;;;;;;;5.38;2.88;;;16.90;99.90;;;;;;5034654;28;20102;-71
2022/10/17 09:51:18;;;;;;;4.25;2.72;;;16.90;99.90;;;;;;5052792;28;20041;-69
2022/10/17 09:53:50;;;;;;;8.35;2.97;;;16.90;99.90;;;;;;5034475;28;20037;-70
2022/10/17 09:56:18;;;;;;;6.65;3.50;;;16.90;99.90;;;;;;5034814;28;20081;-71
2022/10/17 09:58:47;;;;;;;7.03;3.40;;;16.90;99.90;;;;;;5052526;28;20045;-70
2022/10/17 10:01:21;;;;;;;4.22;2.75;;;16.80;99.90;;;;;;5035166;28;20051;-70
2022/10/17 10:04:06;;;;;;;5.95;2.70;;;16.80;99.90;;;;;;5052393;28;20045;-70
2022/10/17 10:06:32;;;;;;;6.18;3.05;;;16.80;99.90;;;;;;5034508;28;20396;-72
2022/10/17 10:08:58;;;;;;;5.40;2.60;;;16.80;99.90;;;;;;5052511;28;20048;-71
2022/10/17 10:11:42;;;;;;;4.85;3.63;;;16.70;99.90;;;;;;5034424;28;20048;-69
2022/10/17 10:14:18;;;;;;;9.82;3.03;;;16.70;99.90;;;;;;5052172;28;20076;-70
2022/10/17 10:16:46;;;;;;;5.68;2.83;;;16.70;99.90;;;;;;5034051;28;20061;-71
2022/10/17 10:19:32;;;;;;;5.63;3.22;;;16.70;99.90;;;;;;5034258;28;20037;-72
2022/10/17 10:22:19;;;;;;;4.53;3.25;;;16.60;99.90;;;;;;5034173;28;20049;-71
2022/10/17 10:24:45;;;;;;;5.45;3.00;;;16.60;99.90;;;;;;5033754;28;20057;-72
2022/10/17 10:27:17;;;;;;;7.22;3.35;;;16.50;99.90;;;;;;5052193;28;20048;-72
2022/10/17 10:29:51;;;;;;;7.22;3.50;;;16.50;99.90;;;;;;5052068;28;20084;-72
2022/10/17 10:32:27;;;;;;;7.82;3.08;;;16.50;99.90;;;;;;5052264;28;20067;-72
2022/10/17 10:34:59;;;;;;;4.95;2.70;;;16.50;99.90;;;;;;5052210;28;20045;-72
2022/10/17 10:37:28;;;;;;;6.10;3.30;;;16.50;99.90;;;;;;5051956;28;20394;-73
2022/10/17 10:39:59;;;;;;;5.53;3.30;;;16.40;99.90;;;;;;5017663;28;20098;-71
2022/10/17 10:42:38;;;;;;;5.53;3.15;;;16.40;99.90;;;;;;5033932;28;20041;-72
2022/10/17 10:45:22;;;;;;;4.85;3.17;;;16.40;99.90;;;;;;5033953;28;20045;-69
2022/10/17 10:47:49;;;;;;;6.18;3.25;;;16.30;99.90;;;;;;5051659;28;20123;-71
2022/10/17 10:50:48;;;;;;;8.45;4.72;;;16.30;99.90;;;;;;5051666;28;20048;-70
2022/10/17 10:53:33;;;;;;;6.57;3.85;;;16.30;99.90;;;;;;5051685;28;20048;-69
2022/10/17 10:56:08;;;;;;;6.13;3.92;;;16.20;99.90;;;;;;5051948;28;20041;-72
2022/10/17 10:58:51;;;;;;;6.45;4.18;;;16.20;99.90;;;;;;5051488;28;20045;-68
2022/10/17 11:01:42;;;;;;;5.85;3.78;;;16.20;99.90;;;;;;5051923;28;20493;-71
2022/10/17 11:04:29;;;;;;;6.32;3.67;;;16.20;99.90;;;;;;5051992;28;20037;-70
2022/10/17 11:07:15;;;;;;;6.15;3.72;;;16.20;99.90;;;;;;5051894;28;20045;-71
2022/10/17 11:09:59;;;;;;;5.18;3.42;;;16.20;99.90;;;;;;5033266;28;20051;-71
2022/10/17 11:12:46;;;;;;;7.65;3.30;;;16.20;99.90;;;;;;5034170;28;20112;-71
2022/10/17 11:15:24;;;;;;;5.88;3.35;;;16.20;99.90;;;;;;5051538;28;20037;-70
2022/10/17 11:18:04;;;;;;;8.35;3.38;;;16.20;99.90;;;;;;5051213;28;20048;-71
2022/10/17 11:20:58;;;;;;;5.72;3.70;;;16.20;99.90;;;;;;5051843;28;20041;-70
2022/10/17 11:23:43;;;;;;;4.70;3.58;;;16.30;99.90;;;;;;5051446;28;20395;-70
2022/10/17 11:26:18;;;;;;;7.13;3.60;;;16.30;99.90;;;;;;5051677;28;20041;-70
2022/10/17 11:28:44;;;;;;;7.47;2.92;;;16.40;99.90;;;;;;5051420;28;20222;-70
2022/10/17 11:31:12;;;;;;;5.53;3.65;;;16.30;99.90;;;;;;5051674;28;20161;-70
2022/10/17 11:34:02;;;;;;;5.65;3.28;;;16.40;99.90;;;;;;5051583;28;20488;-70
2022/10/17 11:36:33;;;;;;;6.10;3.70;;;16.30;99.90;;;;;;5051665;28;20107;-71
2022/10/17 11:39:15;;;;;;;7.57;4.00;;;16.30;99.90;;;;;;5033346;28;20041;-71
2022/10/17 11:41:44;;;;;;;5.88;2.95;;;16.30;99.90;;;;;;5035965;28;20036;-70
2022/10/17 11:44:41;;;;;;;6.70;3.70;;;16.30;99.90;;;;;;5055156;28;20047;-71
2022/10/17 11:47:25;;;;;;;4.10;2.72;;;16.20;99.90;;;;;;5054928;28;20037;-69
2022/10/17 11:50:02;;;;;;;6.45;3.53;;;16.20;99.90;;;;;;5054826;28;20037;-71
2022/10/17 11:52:40;;;;;;;9.00;3.45;;;16.30;99.90;;;;;;5055098;28;20036;-69
2022/10/17 11:55:19;;;;;;;6.72;3.42;;;16.30;99.90;;;;;;5054704;28;20090;-69
2022/10/17 11:58:09;;;;;;;5.57;3.30;;;16.30;99.90;;;;;;5054891;28;20041;-71
2022/10/17 12:00:42;;;;;;;3.80;2.55;;;16.30;99.90;;;;;;5055020;28;20472;-70
2022/10/17 12:03:45;;;;;;;4.90;2.80;;;16.40;99.90;;;;;;5055210;28;20529;-70
2022/10/17 12:06:25;;;;;;;4.00;2.80;;;16.40;99.90;;;;;;5054856;28;20496;-70
2022/10/17 12:14:47;;;;;;;4.65;3.05;;;16.40;99.90;;;;;;5012655;28;20516;-64
2022/10/17 12:17:37;;;;;;;7.00;2.78;;;16.40;99.90;;;;;;5014703;28;20045;-69
2022/10/17 12:20:24;;;;;;;5.00;3.40;;;16.50;99.90;;;;;;5014819;28;20038;-64
2022/10/17 12:23:22;;;;;;;7.68;3.30;;;16.70;99.90;;;;;;5014688;28;20042;-65
2022/10/17 12:26:03;;;;;;;4.35;2.72;;;16.80;99.90;;;;;;4997520;28;20038;-67
2022/10/17 12:31:17;;;;;;;6.05;3.28;;;16.90;99.90;;;;;;4777998;22;20053;-73
2022/10/17 12:33:59;;;;;;;6.35;3.13;;;16.80;99.90;;;;;;5019570;28;20037;-75
2022/10/17 12:36:25;;;;;;;5.40;3.13;;;16.90;99.90;;;;;;5019351;28;20094;-72
2022/10/17 12:39:00;;;;;;;4.68;2.95;;;16.80;99.90;;;;;;5019203;28;20440;-72
2022/10/17 12:41:38;;;;;;;4.95;3.00;;;16.90;99.90;;;;;;5036075;28;20506;-72
2022/10/17 12:47:51;;;;;;;3.63;2.72;;;16.90;99.90;;;;;;5033547;22;20050;31
2022/10/17 12:51:10;;;;;;;4.25;2.42;;;16.90;99.90;;;;;;5014973;23;20045;-72
2022/10/17 12:53:49;;;;;;;6.18;3.17;;;16.90;99.90;;;;;;4973820;28;20047;-73
2022/10/17 12:56:18;;;;;;;3.45;2.20;;;16.90;99.90;;;;;;5000665;28;20048;-72
2022/10/17 12:58:47;;;;;;;4.35;2.88;;;16.80;99.90;;;;;;5016841;28;20044;-72
2022/10/17 13:04:14;;;;;;;3.65;2.28;;;16.70;99.90;;;;;;1383783;22;20060;-78
2022/10/17 13:06:52;;;;;;;4.40;2.83;;;16.60;99.90;;;;;;5016989;28;20045;-78
2022/10/17 13:09:29;;;;;;;4.82;2.80;;;16.70;99.90;;;;;;5016685;28;20076;-78
2022/10/17 13:11:58;;;;;;;4.05;2.50;;;16.60;99.90;;;;;;5016658;28;20037;-78
2022/10/17 13:14:25;;;;;;;4.55;3.20;;;16.60;99.90;;;;;;5017015;28;20447;-78
2022/10/17 13:16:56;;;;;;;3.70;2.10;;;16.50;99.90;;;;;;5000544;28;20041;-78
2022/10/17 13:21:59;;;;;;;6.63;2.60;;;16.50;99.90;;;;;;5053486;22;20127;-64
2022/10/17 13:24:31;;;;;;;4.85;2.58;;;16.50;99.90;;;;;;4994664;28;20049;-74
2022/10/17 13:26:57;;;;;;;1.80;1.15;;;16.50;99.90;;;;;;4996566;28;20072;-74
2022/10/17 13:29:25;;;;;;;2.85;1.00;;;16.40;99.90;;;;;;4996518;28;20038;-74